Time;durP1;ratioP1;P1;durP2;ratioP2;P2;SDS_P1;SDS_P2;PMS_P1;PMS_P2;Temp;Humidity;BMP_temperature;BMP_pressure;BME280_temperature;BME280_humidity;BME280_pressure;Samples;Min_cycle;Max_cycle;Signal;HPM_P1;HPM_P2
2023/06/23 00:00:53;;;;;;;10.73;3.55;;;;;;;;;;5036361;28;20115;-65
2023/06/23 00:03:19;;;;;;;11.48;3.00;;;;;;;;;;5034073;28;20033;-65
2023/06/23 00:05:45;;;;;;;11.05;3.00;;;;;;;;;;5032713;28;20032;-65
2023/06/23 00:08:11;;;;;;;10.68;3.13;;;;;;;;;;5029517;28;20037;-65
2023/06/23 00:10:37;;;;;;;10.98;3.47;;;;;;;;;;5036950;28;20028;-67
2023/06/23 00:13:04;;;;;;;8.77;2.90;;;;;;;;;;5020239;28;20485;-65
2023/06/23 00:15:30;;;;;;;9.45;3.25;;;;;;;;;;5033971;28;20108;-65
2023/06/23 00:17:59;;;;;;;9.25;3.08;;;;;;;;;;5018265;28;20036;-65
2023/06/23 00:20:25;;;;;;;9.02;3.10;;;;;;;;;;5035110;28;20138;-65
2023/06/23 00:22:51;;;;;;;9.45;2.83;;;;;;;;;;5034212;28;20038;-65
2023/06/23 00:25:18;;;;;;;7.80;2.60;;;;;;;;;;5034690;28;20029;-65
2023/06/23 00:27:47;;;;;;;6.38;2.33;;;;;;;;;;5037718;28;20467;-67
2023/06/23 00:30:14;;;;;;;8.55;2.72;;;;;;;;;;5019519;28;20341;-67
2023/06/23 00:32:41;;;;;;;7.85;2.80;;;;;;;;;;5036204;28;20024;-67
2023/06/23 00:35:08;;;;;;;7.10;2.33;;;;;;;;;;5036545;28;20583;-67
2023/06/23 00:37:37;;;;;;;6.97;2.63;;;;;;;;;;5031830;28;20489;-65
2023/06/23 00:40:04;;;;;;;12.52;2.70;;;;;;;;;;5036225;28;20068;-65
2023/06/23 00:42:31;;;;;;;7.32;2.50;;;;;;;;;;5030004;28;22572;-65
2023/06/23 00:44:58;;;;;;;8.00;2.58;;;;;;;;;;5032605;28;20072;-66
2023/06/23 00:47:24;;;;;;;9.15;2.60;;;;;;;;;;5032796;28;20082;-67
2023/06/23 00:49:50;;;;;;;7.32;2.30;;;;;;;;;;5037250;28;20542;-65
2023/06/23 00:52:17;;;;;;;8.38;2.30;;;;;;;;;;5033267;28;20657;-67
2023/06/23 00:54:43;;;;;;;7.72;2.63;;;;;;;;;;5036317;28;20388;-67
2023/06/23 00:57:10;;;;;;;8.27;2.40;;;;;;;;;;5037506;28;20116;-66
2023/06/23 00:59:36;;;;;;;8.23;2.80;;;;;;;;;;5035731;28;20425;-66
2023/06/23 01:02:03;;;;;;;6.78;2.55;;;;;;;;;;5035913;28;20471;-67
2023/06/23 01:04:34;;;;;;;7.60;2.50;;;;;;;;;;5033319;28;20094;-65
2023/06/23 01:07:00;;;;;;;8.15;2.60;;;;;;;;;;5031935;28;20017;-66
2023/06/23 01:09:38;;;;;;;6.97;2.50;;;;;;;;;;5031608;28;20374;-65
2023/06/23 01:12:08;;;;;;;9.95;2.35;;;;;;;;;;5023551;28;20497;-65
2023/06/23 01:14:46;;;;;;;7.88;2.50;;;;;;;;;;5037698;28;20574;-65
2023/06/23 01:17:16;;;;;;;6.50;2.30;;;;;;;;;;5018019;28;20545;-65
2023/06/23 01:20:11;;;;;;;7.85;2.90;;;;;;;;;;5037882;28;20398;-65
2023/06/23 01:22:46;;;;;;;8.30;2.50;;;;;;;;;;5039181;28;20107;-65
2023/06/23 01:25:12;;;;;;;6.82;2.22;;;;;;;;;;5025046;28;20483;-65
2023/06/23 01:27:53;;;;;;;7.03;2.28;;;;;;;;;;5027045;28;20078;-65
2023/06/23 01:30:20;;;;;;;7.40;2.67;;;;;;;;;;5016272;28;20043;-65
2023/06/23 01:32:50;;;;;;;8.13;2.65;;;;;;;;;;5040815;28;20032;-65
2023/06/23 01:35:23;;;;;;;7.47;2.38;;;;;;;;;;5038339;28;20029;-65
2023/06/23 01:37:51;;;;;;;7.13;2.10;;;;;;;;;;5042296;28;20489;-65
2023/06/23 01:40:21;;;;;;;6.30;2.38;;;;;;;;;;5033243;28;20558;-65
2023/06/23 01:42:52;;;;;;;7.93;2.50;;;;;;;;;;5039488;28;20013;-67
2023/06/23 01:45:21;;;;;;;6.03;2.30;;;;;;;;;;5032467;28;20025;-65
2023/06/23 01:47:48;;;;;;;7.25;2.42;;;;;;;;;;5041022;28;20174;-65
2023/06/23 01:50:16;;;;;;;7.55;2.20;;;;;;;;;;5031496;28;20028;-66
2023/06/23 01:52:44;;;;;;;13.05;2.92;;;;;;;;;;5026601;28;20098;-66
2023/06/23 01:55:10;;;;;;;7.65;2.22;;;;;;;;;;5034939;28;20102;-65
2023/06/23 01:57:38;;;;;;;6.70;2.38;;;;;;;;;;5034136;28;20029;-64
2023/06/23 02:00:05;;;;;;;6.40;2.20;;;;;;;;;;5036606;28;20033;-67
2023/06/23 02:02:32;;;;;;;10.75;2.63;;;;;;;;;;5035028;28;20793;-66
2023/06/23 02:04:59;;;;;;;8.07;2.95;;;;;;;;;;5037322;28;20079;-66
2023/06/23 02:07:26;;;;;;;8.07;2.15;;;;;;;;;;5031120;28;20249;-67
2023/06/23 02:09:53;;;;;;;7.97;2.47;;;;;;;;;;5036212;28;20123;-66
2023/06/23 02:12:20;;;;;;;9.43;2.03;;;;;;;;;;5035050;28;20440;-67
2023/06/23 02:14:47;;;;;;;6.85;2.33;;;;;;;;;;5039204;28;20044;-67
2023/06/23 02:17:14;;;;;;;7.53;2.58;;;;;;;;;;5034296;28;20616;-65
2023/06/23 02:19:42;;;;;;;7.93;2.50;;;;;;;;;;5042581;28;20040;-65
2023/06/23 02:22:11;;;;;;;7.38;2.50;;;;;;;;;;5035195;28;20017;-66
2023/06/23 02:24:39;;;;;;;7.72;2.40;;;;;;;;;;5035182;28;20021;-67
2023/06/23 02:27:06;;;;;;;7.78;2.40;;;;;;;;;;5040813;28;20454;-66
2023/06/23 02:29:34;;;;;;;6.88;2.40;;;;;;;;;;5033543;28;20436;-66
2023/06/23 02:32:01;;;;;;;6.45;2.35;;;;;;;;;;5039782;28;20040;-65
2023/06/23 02:34:27;;;;;;;8.10;2.53;;;;;;;;;;5007558;28;20063;-66
2023/06/23 02:36:55;;;;;;;7.05;2.30;;;;;;;;;;5033334;28;20127;-66
2023/06/23 02:39:22;;;;;;;7.57;2.50;;;;;;;;;;5034091;28;20474;-65
2023/06/23 02:41:52;;;;;;;6.60;2.30;;;;;;;;;;5035323;28;20020;-65
2023/06/23 02:44:21;;;;;;;6.40;2.47;;;;;;;;;;5035338;28;20029;-65
2023/06/23 02:46:53;;;;;;;7.40;2.58;;;;;;;;;;5037432;28;20033;-64
2023/06/23 02:49:22;;;;;;;6.82;2.33;;;;;;;;;;5037484;28;20037;-64
2023/06/23 02:51:50;;;;;;;6.88;2.22;;;;;;;;;;5040500;28;20104;-67
2023/06/23 02:54:18;;;;;;;7.22;2.30;;;;;;;;;;5033363;28;20055;-65
2023/06/23 02:56:46;;;;;;;7.65;2.92;;;;;;;;;;5038619;28;20029;-67
2023/06/23 02:59:14;;;;;;;5.95;2.42;;;;;;;;;;5034836;28;20628;-64
2023/06/23 03:01:41;;;;;;;7.38;2.30;;;;;;;;;;5037507;28;20132;-65
2023/06/23 03:04:07;;;;;;;7.93;2.60;;;;;;;;;;5037743;28;20060;-66
2023/06/23 03:06:34;;;;;;;7.38;2.17;;;;;;;;;;5035579;28;20052;-67
2023/06/23 03:09:02;;;;;;;8.43;2.63;;;;;;;;;;5039665;28;20055;-67
2023/06/23 03:11:30;;;;;;;7.28;2.50;;;;;;;;;;5033104;28;20572;-67
2023/06/23 03:13:56;;;;;;;7.68;2.40;;;;;;;;;;5040611;28;20024;-67
2023/06/23 03:16:34;;;;;;;8.43;2.67;;;;;;;;;;5020035;28;20527;-65
2023/06/23 03:19:04;;;;;;;5.75;2.30;;;;;;;;;;5036867;28;20086;-66
2023/06/23 03:21:30;;;;;;;6.18;2.30;;;;;;;;;;5035173;28;20028;-65
2023/06/23 03:23:57;;;;;;;7.30;2.40;;;;;;;;;;5037092;28;21442;-65
2023/06/23 03:26:24;;;;;;;7.13;2.33;;;;;;;;;;5031289;28;20443;-65
2023/06/23 03:28:53;;;;;;;7.32;2.40;;;;;;;;;;5035727;28;20493;-65
2023/06/23 03:31:19;;;;;;;9.02;2.35;;;;;;;;;;5033269;28;20037;-66
2023/06/23 03:33:45;;;;;;;7.78;2.38;;;;;;;;;;5022621;28;20506;-66
2023/06/23 03:36:21;;;;;;;7.20;2.42;;;;;;;;;;5032478;28;20028;-66
2023/06/23 03:38:47;;;;;;;;;;;;;;;;;;5037962;28;20033;-65
2023/06/23 03:41:14;;;;;;;7.03;2.25;;;;;;;;;;5013895;28;19923;-66
2023/06/23 03:44:03;;;;;;;8.48;2.80;;;;;;;;;;5034981;28;20029;-66
2023/06/23 03:46:33;;;;;;;6.20;2.20;;;;;;;;;;4975281;28;20047;-66
2023/06/23 03:49:00;;;;;;;8.15;2.50;;;;;;;;;;4996490;28;20041;-66
2023/06/23 03:51:28;;;;;;;7.05;2.45;;;;;;;;;;4990776;28;20054;-66
2023/06/23 03:53:56;;;;;;;6.63;2.17;;;;;;;;;;4998771;28;20079;-66
2023/06/23 03:56:23;;;;;;;7.85;2.55;;;;;;;;;;4991352;28;20077;-66
2023/06/23 03:58:50;;;;;;;8.45;2.63;;;;;;;;;;4997888;28;20114;-66
2023/06/23 04:01:17;;;;;;;7.68;2.60;;;;;;;;;;4992245;28;20129;-66
2023/06/23 04:03:44;;;;;;;7.78;2.60;;;;;;;;;;4995965;28;20077;-64
2023/06/23 04:06:11;;;;;;;8.30;2.90;;;;;;;;;;4995520;28;20550;-64
2023/06/23 04:08:38;;;;;;;7.38;2.42;;;;;;;;;;4978077;28;20044;-65
2023/06/23 04:11:06;;;;;;;6.50;2.25;;;;;;;;;;4992645;28;20502;-65
2023/06/23 04:13:33;;;;;;;6.22;2.42;;;;;;;;;;4992616;28;20662;-67
2023/06/23 04:16:00;;;;;;;7.25;2.30;;;;;;;;;;4996360;28;20033;-65
2023/06/23 04:18:27;;;;;;;7.22;2.50;;;;;;;;;;4989498;28;20048;-65
2023/06/23 04:20:54;;;;;;;6.95;2.60;;;;;;;;;;4994934;28;20029;-65
2023/06/23 04:23:21;;;;;;;7.35;2.70;;;;;;;;;;5009697;28;20124;-65
2023/06/23 04:25:48;;;;;;;8.45;2.40;;;;;;;;;;5039746;28;20038;-65
2023/06/23 04:28:16;;;;;;;8.23;2.65;;;;;;;;;;5032083;28;20105;-66
2023/06/23 04:30:43;;;;;;;11.00;2.40;;;;;;;;;;5037621;28;20103;-65
2023/06/23 04:33:09;;;;;;;7.20;2.75;;;;;;;;;;5035992;28;20036;-65
2023/06/23 04:35:36;;;;;;;10.30;2.70;;;;;;;;;;5033265;28;20035;-65
2023/06/23 04:38:11;;;;;;;11.88;2.67;;;;;;;;;;5036745;28;20031;-66
2023/06/23 04:40:41;;;;;;;8.30;2.50;;;;;;;;;;5036481;28;20034;-67
2023/06/23 04:43:12;;;;;;;8.15;2.45;;;;;;;;;;5034838;28;20128;-67
2023/06/23 04:45:42;;;;;;;7.82;2.53;;;;;;;;;;5037237;28;20027;-65
2023/06/23 04:48:11;;;;;;;8.70;3.00;;;;;;;;;;5036965;28;20055;-66
2023/06/23 04:50:38;;;;;;;6.38;2.40;;;;;;;;;;5036736;28;20032;-64
2023/06/23 04:53:06;;;;;;;7.40;2.65;;;;;;;;;;5037209;28;20040;-67
2023/06/23 04:55:34;;;;;;;7.68;2.42;;;;;;;;;;5032109;28;20157;-67
2023/06/23 04:58:03;;;;;;;7.10;2.45;;;;;;;;;;5019573;28;20032;-65
2023/06/23 05:00:30;;;;;;;7.80;2.60;;;;;;;;;;5017304;28;20531;-65
2023/06/23 05:02:58;;;;;;;7.75;2.63;;;;;;;;;;5022093;28;20035;-65
2023/06/23 05:05:26;;;;;;;6.70;2.63;;;;;;;;;;5014687;28;20111;-65
2023/06/23 05:07:53;;;;;;;6.90;2.78;;;;;;;;;;5037726;28;20132;-65
2023/06/23 05:10:20;;;;;;;8.32;3.08;;;;;;;;;;5018123;28;20036;-65
2023/06/23 05:12:47;;;;;;;7.70;2.67;;;;;;;;;;5021773;28;20040;-65
2023/06/23 05:15:14;;;;;;;7.05;2.53;;;;;;;;;;5031121;28;20597;-66
2023/06/23 05:17:41;;;;;;;8.30;2.80;;;;;;;;;;5021935;28;20066;-65
2023/06/23 05:20:11;;;;;;;8.70;2.55;;;;;;;;;;5037332;28;20036;-66
2023/06/23 05:22:38;;;;;;;7.70;2.50;;;;;;;;;;5034894;28;20116;-66
2023/06/23 05:25:05;;;;;;;7.78;2.42;;;;;;;;;;5035999;28;20028;-66
2023/06/23 05:27:33;;;;;;;8.93;2.90;;;;;;;;;;5032169;28;20124;-66
2023/06/23 05:30:00;;;;;;;7.57;2.67;;;;;;;;;;5037298;28;20209;-67
2023/06/23 05:32:28;;;;;;;7.30;2.45;;;;;;;;;;5034320;28;20115;-65
2023/06/23 05:34:56;;;;;;;11.98;3.88;;;;;;;;;;5035568;28;20037;-65
2023/06/23 05:37:23;;;;;;;10.43;3.05;;;;;;;;;;5033213;28;20392;-65
2023/06/23 05:39:50;;;;;;;10.05;2.95;;;;;;;;;;5033720;28;20059;-67
2023/06/23 05:42:16;;;;;;;11.23;2.90;;;;;;;;;;5030968;28;20029;-65
2023/06/23 05:44:42;;;;;;;7.80;2.50;;;;;;;;;;5034250;28;20040;-65
2023/06/23 05:47:13;;;;;;;7.22;2.55;;;;;;;;;;5033781;28;20133;-65
2023/06/23 05:49:41;;;;;;;7.10;2.63;;;;;;;;;;5034621;28;20422;-65
2023/06/23 05:52:09;;;;;;;6.82;2.60;;;;;;;;;;5037578;28;20044;-65
2023/06/23 05:54:38;;;;;;;10.43;2.92;;;;;;;;;;5029752;28;20509;-65
2023/06/23 05:57:07;;;;;;;8.32;2.85;;;;;;;;;;5036928;28;20477;-65
2023/06/23 05:59:37;;;;;;;7.20;2.55;;;;;;;;;;5020641;28;20136;-65
2023/06/23 06:02:05;;;;;;;8.02;2.92;;;;;;;;;;5041092;28;20024;-65
2023/06/23 06:04:33;;;;;;;11.38;3.70;;;;;;;;;;5034297;28;20033;-66
2023/06/23 06:07:00;;;;;;;9.43;3.20;;;;;;;;;;5039309;28;20029;-66
2023/06/23 06:09:28;;;;;;;10.00;3.50;;;;;;;;;;5038662;28;20032;-66
2023/06/23 06:11:55;;;;;;;9.05;3.80;;;;;;;;;;5038262;28;20490;-66
2023/06/23 06:14:23;;;;;;;10.88;5.13;;;;;;;;;;5035337;28;20433;-66
2023/06/23 06:16:49;;;;;;;10.05;3.78;;;;;;;;;;5039869;28;20129;-66
2023/06/23 06:19:17;;;;;;;10.45;3.42;;;;;;;;;;5037438;28;20029;-66
2023/06/23 06:21:44;;;;;;;12.55;4.05;;;;;;;;;;5039830;28;20158;-67
2023/06/23 06:24:11;;;;;;;9.45;3.60;;;;;;;;;;5039644;28;20318;-64
2023/06/23 06:26:38;;;;;;;10.98;4.10;;;;;;;;;;5020845;28;20036;-66
2023/06/23 06:29:06;;;;;;;15.00;4.82;;;;;;;;;;5021203;28;20216;-65
2023/06/23 06:31:36;;;;;;;9.35;4.38;;;;;;;;;;5034781;28;20630;-65
2023/06/23 06:34:02;;;;;;;8.60;3.67;;;;;;;;;;5039171;28;20070;-65
2023/06/23 06:36:30;;;;;;;9.00;3.63;;;;;;;;;;5035939;28;20419;-65
2023/06/23 06:38:57;;;;;;;11.70;4.50;;;;;;;;;;5040631;28;20627;-66
2023/06/23 06:41:23;;;;;;;9.43;3.90;;;;;;;;;;5020266;28;20818;-65
2023/06/23 06:43:50;;;;;;;9.25;3.22;;;;;;;;;;5023356;28;20040;-65
2023/06/23 06:46:17;;;;;;;9.73;4.50;;;;;;;;;;5034364;28;20025;-65
2023/06/23 06:48:49;;;;;;;10.80;3.97;;;;;;;;;;5038057;28;20071;-65
2023/06/23 06:51:17;;;;;;;12.18;4.35;;;;;;;;;;5035149;28;21066;-65
2023/06/23 06:53:44;;;;;;;9.30;3.90;;;;;;;;;;5034581;28;20040;-66
2023/06/23 06:56:12;;;;;;;9.68;4.00;;;;;;;;;;5024456;28;20078;-65
2023/06/23 06:58:38;;;;;;;9.80;3.40;;;;;;;;;;5023016;28;20109;-65
2023/06/23 07:01:04;;;;;;;9.60;3.53;;;;;;;;;;5040631;28;20113;-65
2023/06/23 07:03:31;;;;;;;9.02;3.53;;;;;;;;;;5033257;28;20028;-65
2023/06/23 07:05:58;;;;;;;9.32;4.03;;;;;;;;;;5038080;28;20027;-65
2023/06/23 07:08:24;;;;;;;9.98;4.18;;;;;;;;;;5035881;28;20040;-65
2023/06/23 07:10:50;;;;;;;10.32;3.55;;;;;;;;;;5040067;28;20036;-65
2023/06/23 07:13:16;;;;;;;9.88;3.67;;;;;;;;;;5034850;28;20556;-65
2023/06/23 07:15:42;;;;;;;9.98;3.38;;;;;;;;;;5039547;28;20040;-65
2023/06/23 07:18:08;;;;;;;8.23;3.10;;;;;;;;;;5037950;28;20364;-65
2023/06/23 07:20:34;;;;;;;9.38;3.38;;;;;;;;;;5031936;28;20025;-68
2023/06/23 07:23:01;;;;;;;13.10;3.67;;;;;;;;;;5037359;28;20138;-64
2023/06/23 07:25:27;;;;;;;10.40;3.53;;;;;;;;;;5034464;28;20025;-67
2023/06/23 07:27:53;;;;;;;8.85;3.05;;;;;;;;;;5037321;28;20734;-65
2023/06/23 07:30:19;;;;;;;9.88;3.50;;;;;;;;;;5029106;28;20470;-67
2023/06/23 07:32:45;;;;;;;10.82;3.63;;;;;;;;;;5039327;28;20027;-68
2023/06/23 07:35:12;;;;;;;9.77;3.28;;;;;;;;;;5035948;28;20032;-65
2023/06/23 07:37:38;;;;;;;9.55;3.45;;;;;;;;;;5037238;28;20029;-65
2023/06/23 07:40:06;;;;;;;8.13;3.15;;;;;;;;;;5026150;28;20341;-65
2023/06/23 07:42:32;;;;;;;11.23;3.17;;;;;;;;;;5035449;28;20359;-65
2023/06/23 07:44:58;;;;;;;8.30;3.38;;;;;;;;;;5037084;28;20021;-65
2023/06/23 07:47:24;;;;;;;9.70;3.50;;;;;;;;;;5033636;28;20489;-65
2023/06/23 07:49:51;;;;;;;10.60;3.47;;;;;;;;;;5037940;28;20036;-67
2023/06/23 07:52:17;;;;;;;10.57;3.58;;;;;;;;;;5019881;28;20701;-65
2023/06/23 07:54:43;;;;;;;9.65;3.40;;;;;;;;;;5018936;28;20981;-65
2023/06/23 07:57:10;;;;;;;8.80;3.40;;;;;;;;;;5016846;28;20044;-67
2023/06/23 07:59:36;;;;;;;10.23;3.60;;;;;;;;;;5011911;28;20021;-66
2023/06/23 08:02:02;;;;;;;10.38;3.30;;;;;;;;;;5020226;28;20075;-66
2023/06/23 08:04:28;;;;;;;10.35;3.28;;;;;;;;;;5011380;28;20064;-65
2023/06/23 08:06:54;;;;;;;8.63;3.00;;;;;;;;;;5015274;28;20040;-66
2023/06/23 08:09:20;;;;;;;8.63;3.33;;;;;;;;;;5027943;28;20040;-66
2023/06/23 08:11:47;;;;;;;12.20;3.25;;;;;;;;;;5013770;28;20910;-66
2023/06/23 08:19:21;;;;;;;;;;;;;;;;;;5516641;22;20750;-65
2023/06/23 08:21:47;;;;;;;9.35;3.22;;;;;;;;;;5010244;28;20162;-65
2023/06/23 08:24:14;;;;;;;8.43;3.28;;;;;;;;;;5006848;28;20459;-65
2023/06/23 08:26:40;;;;;;;10.15;3.83;;;;;;;;;;5010504;28;20096;-65
2023/06/23 08:29:06;;;;;;;9.93;3.53;;;;;;;;;;5014850;28;20353;-65
2023/06/23 08:31:32;;;;;;;9.93;3.50;;;;;;;;;;5008888;28;21959;-65
2023/06/23 08:33:58;;;;;;;10.07;3.55;;;;;;;;;;5015236;28;20856;-67
2023/06/23 08:36:24;;;;;;;9.52;3.42;;;;;;;;;;5008187;28;20037;-67
2023/06/23 08:38:50;;;;;;;8.38;3.53;;;;;;;;;;5016281;28;20033;-64
2023/06/23 08:41:21;;;;;;;9.93;4.03;;;;;;;;;;5009854;28;20028;-67
2023/06/23 08:43:48;;;;;;;11.57;3.22;;;;;;;;;;5014833;28;20049;-66
2023/06/23 08:46:15;;;;;;;8.88;3.08;;;;;;;;;;5013849;28;20025;-65
2023/06/23 08:48:44;;;;;;;9.70;3.53;;;;;;;;;;5018943;28;20879;-65
2023/06/23 08:51:10;;;;;;;10.27;3.38;;;;;;;;;;4997005;28;20600;-65
2023/06/23 08:53:36;;;;;;;9.98;3.58;;;;;;;;;;5012014;28;20116;-65
2023/06/23 08:56:03;;;;;;;11.90;3.10;;;;;;;;;;5017036;28;20392;-65
2023/06/23 08:58:29;;;;;;;11.75;3.63;;;;;;;;;;5010793;28;20032;-64
2023/06/23 09:00:55;;;;;;;11.60;3.72;;;;;;;;;;5015167;28;20799;-64
2023/06/23 09:03:25;;;;;;;12.20;4.20;;;;;;;;;;5013863;28;20390;-67
2023/06/23 09:05:51;;;;;;;13.13;3.50;;;;;;;;;;5014218;28;20048;-65
2023/06/23 09:08:17;;;;;;;22.90;3.67;;;;;;;;;;5012030;28;20029;-68
2023/06/23 09:10:44;;;;;;;11.38;3.10;;;;;;;;;;5015288;28;20461;-64
2023/06/23 09:13:14;;;;;;;11.27;3.88;;;;;;;;;;5013520;28;20025;-65
2023/06/23 09:15:42;;;;;;;8.32;3.15;;;;;;;;;;5015527;28;20071;-65
2023/06/23 09:18:09;;;;;;;11.18;3.60;;;;;;;;;;5014629;28;20351;-65
2023/06/23 09:20:36;;;;;;;10.40;3.22;;;;;;;;;;5015471;28;20314;-65
2023/06/23 09:23:03;;;;;;;9.90;3.20;;;;;;;;;;5018615;28;20294;-65
2023/06/23 09:25:39;;;;;;;9.48;3.30;;;;;;;;;;5010262;28;20087;-65
2023/06/23 09:28:05;;;;;;;13.60;3.38;;;;;;;;;;4998584;28;20163;-65
2023/06/23 09:30:37;;;;;;;11.25;3.22;;;;;;;;;;5010812;28;20025;-65
2023/06/23 09:33:06;;;;;;;10.15;3.10;;;;;;;;;;5018942;28;20037;-65
2023/06/23 09:35:33;;;;;;;10.13;3.60;;;;;;;;;;5018749;28;20037;-65
2023/06/23 09:38:02;;;;;;;8.70;3.33;;;;;;;;;;5015967;28;20589;-65
2023/06/23 09:40:28;;;;;;;9.13;3.17;;;;;;;;;;5010165;28;20242;-65
2023/06/23 09:43:00;;;;;;;9.10;2.97;;;;;;;;;;5015483;28;20068;-65
2023/06/23 09:45:27;;;;;;;12.52;3.30;;;;;;;;;;5015734;28;20029;-65
2023/06/23 09:47:53;;;;;;;12.18;3.40;;;;;;;;;;5020105;28;20045;-65
2023/06/23 09:50:22;;;;;;;10.88;3.35;;;;;;;;;;5018198;28;20406;-65
2023/06/23 09:52:59;;;;;;;9.35;3.03;;;;;;;;;;5016234;28;20091;-65
2023/06/23 09:55:25;;;;;;;10.65;3.38;;;;;;;;;;5018457;28;20118;-67
2023/06/23 09:57:52;;;;;;;9.95;3.13;;;;;;;;;;5019061;28;20449;-67
2023/06/23 10:00:18;;;;;;;11.25;3.22;;;;;;;;;;5019738;28;20021;-66
2023/06/23 10:02:45;;;;;;;9.93;3.03;;;;;;;;;;5022602;28;20461;-67
2023/06/23 10:05:11;;;;;;;10.65;3.38;;;;;;;;;;5019368;28;20025;-66
2023/06/23 10:07:38;;;;;;;10.60;3.30;;;;;;;;;;5015946;28;20028;-66
2023/06/23 10:10:07;;;;;;;9.25;2.72;;;;;;;;;;5024605;28;20029;-67
2023/06/23 10:12:36;;;;;;;11.98;3.25;;;;;;;;;;5013035;28;20032;-66
2023/06/23 10:15:02;;;;;;;9.10;3.10;;;;;;;;;;5019085;28;20055;-66
2023/06/23 10:17:28;;;;;;;9.02;3.05;;;;;;;;;;5011682;28;20049;-66
2023/06/23 10:19:56;;;;;;;9.50;3.20;;;;;;;;;;5019345;28;20052;-67
2023/06/23 10:22:22;;;;;;;9.65;3.42;;;;;;;;;;5012876;28;20506;-67
2023/06/23 10:24:52;;;;;;;11.55;3.65;;;;;;;;;;5020214;28;20017;-66
2023/06/23 10:27:25;;;;;;;9.80;3.42;;;;;;;;;;5016731;28;20035;-65
2023/06/23 10:29:53;;;;;;;9.80;3.30;;;;;;;;;;5018436;28;20032;-66
2023/06/23 10:32:23;;;;;;;11.85;3.42;;;;;;;;;;5016124;28;20354;-64
2023/06/23 10:34:51;;;;;;;10.35;3.20;;;;;;;;;;5017960;28;20028;-65
2023/06/23 10:37:20;;;;;;;9.20;3.30;;;;;;;;;;4998255;28;20036;-65
2023/06/23 10:39:50;;;;;;;11.10;3.58;;;;;;;;;;5020566;28;20417;-65
2023/06/23 10:42:16;;;;;;;8.13;3.10;;;;;;;;;;5016188;28;20257;-67
2023/06/23 10:44:43;;;;;;;9.18;3.28;;;;;;;;;;5019153;28;20233;-66
2023/06/23 10:47:09;;;;;;;10.60;3.33;;;;;;;;;;5001892;28;20264;-66
2023/06/23 10:49:36;;;;;;;7.78;3.10;;;;;;;;;;5015291;28;20033;-66
2023/06/23 10:52:04;;;;;;;9.10;3.13;;;;;;;;;;4997589;28;20075;-66
2023/06/23 10:54:31;;;;;;;10.18;3.25;;;;;;;;;;5011916;28;20360;-66
2023/06/23 10:56:57;;;;;;;9.50;3.22;;;;;;;;;;5013252;28;20025;-66
2023/06/23 10:59:28;;;;;;;10.48;3.03;;;;;;;;;;5015106;28;20025;-67
2023/06/23 11:02:00;;;;;;;11.82;3.22;;;;;;;;;;5017611;28;20578;-66
2023/06/23 11:04:26;;;;;;;8.35;3.22;;;;;;;;;;5013379;28;20402;-66
2023/06/23 11:07:15;;;;;;;9.20;3.05;;;;;;;;;;5013778;28;20750;-66
2023/06/23 11:09:55;;;;;;;8.57;3.10;;;;;;;;;;5017130;28;20037;-66
2023/06/23 11:12:27;;;;;;;7.60;2.97;;;;;;;;;;5012665;28;20033;-66
2023/06/23 11:14:54;;;;;;;15.23;3.53;;;;;;;;;;5016113;28;20033;-66
2023/06/23 11:17:23;;;;;;;8.32;3.20;;;;;;;;;;5012451;28;20052;-66
2023/06/23 11:19:52;;;;;;;10.45;3.53;;;;;;;;;;5017277;28;20041;-66
2023/06/23 11:22:22;;;;;;;11.35;3.42;;;;;;;;;;5017793;28;20040;-66
2023/06/23 11:24:54;;;;;;;11.88;3.80;;;;;;;;;;5011901;28;20430;-67
2023/06/23 11:27:20;;;;;;;10.65;3.25;;;;;;;;;;5014635;28;20029;-68
2023/06/23 11:30:10;;;;;;;12.70;3.50;;;;;;;;;;5017433;28;20032;-66
2023/06/23 11:32:36;;;;;;;14.50;3.50;;;;;;;;;;5004311;28;20147;-67
2023/06/23 11:35:04;;;;;;;12.70;3.35;;;;;;;;;;5018451;28;20031;-65
2023/06/23 11:37:31;;;;;;;12.57;3.40;;;;;;;;;;5011258;28;20033;-67
2023/06/23 11:39:57;;;;;;;22.20;3.63;;;;;;;;;;5018574;28;20027;-66
2023/06/23 11:42:24;;;;;;;9.73;3.33;;;;;;;;;;5013882;28;20047;-64
2023/06/23 11:44:50;;;;;;;19.42;3.50;;;;;;;;;;5012148;28;20028;-64
2023/06/23 11:47:16;;;;;;;15.10;3.47;;;;;;;;;;5014497;28;20463;-65
2023/06/23 11:49:43;;;;;;;11.65;3.40;;;;;;;;;;5017161;28;20029;-67
2023/06/23 11:52:09;;;;;;;15.35;3.80;;;;;;;;;;5013700;28;20033;-67
2023/06/23 11:54:36;;;;;;;11.30;3.42;;;;;;;;;;5013298;28;20045;-67
2023/06/23 11:57:06;;;;;;;9.05;3.30;;;;;;;;;;5012516;28;20569;-67
2023/06/23 11:59:36;;;;;;;9.82;3.17;;;;;;;;;;5016370;28;20423;-67
2023/06/23 12:02:02;;;;;;;10.70;3.47;;;;;;;;;;5014229;28;20028;-67
2023/06/23 12:04:29;;;;;;;12.30;3.55;;;;;;;;;;5016322;28;20576;-67
2023/06/23 12:06:55;;;;;;;13.73;3.83;;;;;;;;;;5015518;28;20090;-67
2023/06/23 12:09:21;;;;;;;10.75;3.55;;;;;;;;;;5016338;28;20032;-69
2023/06/23 12:11:48;;;;;;;12.25;3.97;;;;;;;;;;4998792;28;20120;-67
2023/06/23 12:14:14;;;;;;;11.55;3.58;;;;;;;;;;5012407;28;20037;-68
2023/06/23 12:16:40;;;;;;;10.52;3.40;;;;;;;;;;4991837;28;20935;-68
2023/06/23 12:19:06;;;;;;;9.88;3.47;;;;;;;;;;5019304;28;20140;-67
2023/06/23 12:21:33;;;;;;;11.25;3.50;;;;;;;;;;5014664;28;20029;-70
2023/06/23 12:24:00;;;;;;;11.95;3.75;;;;;;;;;;5019542;28;20067;-68
2023/06/23 12:26:26;;;;;;;12.90;3.42;;;;;;;;;;5013792;28;20649;-68
2023/06/23 12:28:52;;;;;;;8.60;3.05;;;;;;;;;;5015905;28;20673;-68
2023/06/23 12:31:25;;;;;;;10.95;3.63;;;;;;;;;;4999439;28;20092;-67
2023/06/23 12:33:51;;;;;;;10.18;3.50;;;;;;;;;;5017806;28;20075;-68
2023/06/23 12:36:18;;;;;;;13.82;3.25;;;;;;;;;;5013665;28;20037;-68
2023/06/23 12:38:44;;;;;;;11.35;3.80;;;;;;;;;;5014896;28;20440;-68
2023/06/23 12:41:14;;;;;;;9.70;3.60;;;;;;;;;;5011943;28;20067;-68
2023/06/23 12:43:42;;;;;;;10.70;3.13;;;;;;;;;;5016971;28;20090;-68
2023/06/23 12:46:10;;;;;;;11.07;3.15;;;;;;;;;;5014837;28;20487;-68
2023/06/23 12:48:38;;;;;;;8.65;3.30;;;;;;;;;;5010540;28;20036;-67
2023/06/23 12:51:05;;;;;;;10.52;3.45;;;;;;;;;;5000739;28;20040;-67
2023/06/23 12:53:32;;;;;;;10.68;3.80;;;;;;;;;;4995078;28;23090;-67
2023/06/23 12:55:58;;;;;;;8.27;3.17;;;;;;;;;;4998284;28;20490;-67
2023/06/23 12:58:24;;;;;;;13.57;3.40;;;;;;;;;;5014728;28;20558;-67
2023/06/23 13:00:50;;;;;;;9.55;3.22;;;;;;;;;;5001465;28;20574;-68
2023/06/23 13:03:16;;;;;;;9.68;3.13;;;;;;;;;;5015795;28;20063;-67
2023/06/23 13:05:43;;;;;;;9.02;3.08;;;;;;;;;;5021206;28;20114;-67
2023/06/23 13:08:10;;;;;;;11.65;3.53;;;;;;;;;;4998873;28;20055;-68
2023/06/23 13:10:36;;;;;;;10.65;3.50;;;;;;;;;;5016350;28;20098;-68
2023/06/23 13:13:03;;;;;;;9.35;3.17;;;;;;;;;;5019723;28;20130;-68
2023/06/23 13:15:31;;;;;;;8.40;3.30;;;;;;;;;;4995041;28;20864;-68
2023/06/23 13:17:58;;;;;;;8.93;3.25;;;;;;;;;;4996849;28;20041;-68
2023/06/23 13:20:24;;;;;;;13.10;3.47;;;;;;;;;;5011812;28;20064;-68
2023/06/23 13:22:51;;;;;;;9.35;3.25;;;;;;;;;;5024139;28;20052;-68
2023/06/23 13:25:17;;;;;;;10.43;3.38;;;;;;;;;;5004867;28;20029;-67
2023/06/23 13:27:43;;;;;;;9.85;3.22;;;;;;;;;;4999798;28;20033;-68
2023/06/23 13:30:09;;;;;;;9.73;3.08;;;;;;;;;;5021528;28;20211;-67
2023/06/23 13:32:38;;;;;;;8.75;3.40;;;;;;;;;;5013529;28;20029;-68
2023/06/23 13:35:04;;;;;;;13.05;3.22;;;;;;;;;;4999564;28;20036;-67
2023/06/23 13:37:34;;;;;;;9.85;3.55;;;;;;;;;;5018879;28;20041;-68
2023/06/23 13:40:01;;;;;;;12.02;3.03;;;;;;;;;;5024270;28;20353;-68
2023/06/23 13:42:27;;;;;;;11.52;3.13;;;;;;;;;;5019219;28;20558;-70
2023/06/23 13:44:53;;;;;;;10.43;3.40;;;;;;;;;;5002053;28;20371;-70
2023/06/23 13:47:19;;;;;;;10.10;3.53;;;;;;;;;;4997498;28;20775;-70
2023/06/23 13:49:45;;;;;;;8.35;2.90;;;;;;;;;;5019051;28;20067;-68
2023/06/23 13:52:12;;;;;;;11.07;3.30;;;;;;;;;;5014882;28;20021;-69
2023/06/23 13:54:38;;;;;;;10.27;3.20;;;;;;;;;;5010646;28;21026;-70
2023/06/23 13:57:04;;;;;;;9.23;3.42;;;;;;;;;;4971413;28;20411;-70
2023/06/23 13:59:31;;;;;;;10.23;3.25;;;;;;;;;;4999773;28;20048;-70
2023/06/23 14:01:57;;;;;;;9.90;3.10;;;;;;;;;;4974102;28;20536;-68
2023/06/23 14:04:23;;;;;;;11.43;3.15;;;;;;;;;;4987814;28;20048;-71
2023/06/23 14:06:49;;;;;;;10.15;3.03;;;;;;;;;;4991460;28;20629;-70
2023/06/23 14:09:16;;;;;;;10.13;3.58;;;;;;;;;;4980970;28;20079;-68
2023/06/23 14:11:42;;;;;;;11.27;3.50;;;;;;;;;;4994661;28;20560;-70
2023/06/23 14:14:09;;;;;;;9.50;3.00;;;;;;;;;;5008786;28;20044;-70
2023/06/23 14:16:35;;;;;;;11.20;3.60;;;;;;;;;;5002482;28;20168;-68
2023/06/23 14:19:04;;;;;;;10.05;3.15;;;;;;;;;;5006390;28;20183;-69
2023/06/23 14:21:31;;;;;;;9.98;3.17;;;;;;;;;;4999324;28;20254;-68
2023/06/23 14:23:57;;;;;;;12.10;3.20;;;;;;;;;;4994616;28;20025;-70
2023/06/23 14:26:23;;;;;;;10.55;3.85;;;;;;;;;;4994107;28;20186;-70
2023/06/23 14:28:49;;;;;;;8.63;3.00;;;;;;;;;;4970031;28;20037;-70
2023/06/23 14:31:15;;;;;;;9.18;3.13;;;;;;;;;;4990256;28;20835;-70
2023/06/23 14:33:42;;;;;;;8.38;2.92;;;;;;;;;;5005137;28;20037;-70
2023/06/23 14:36:08;;;;;;;9.52;3.53;;;;;;;;;;4979594;28;20502;-70
2023/06/23 14:38:34;;;;;;;10.32;3.28;;;;;;;;;;4987296;28;21334;-70
2023/06/23 14:41:00;;;;;;;12.00;3.42;;;;;;;;;;4987951;28;20050;-69
2023/06/23 14:43:26;;;;;;;9.45;3.70;;;;;;;;;;4984470;28;20128;-70
2023/06/23 14:45:53;;;;;;;9.95;3.40;;;;;;;;;;4988710;28;20033;-68